sensor_id;sensor_type;location;lat;lon;timestamp;pressure;altitude;pressure_sealevel;temperature;humidity
13456;BME280;6800;50.940;6.940;2023-07-02T00:03:56;100027.66;;;30.05;36.98
13456;BME280;6800;50.940;6.940;2023-07-02T00:07:57;100021.16;;;29.83;36.87
13456;BME280;6800;50.940;6.940;2023-07-02T00:11:59;100018.00;;;29.86;36.21
13456;BME280;6800;50.940;6.940;2023-07-02T00:16:00;100019.91;;;29.86;35.95
13456;BME280;6800;50.940;6.940;2023-07-02T00:20:01;100024.47;;;29.97;36.19
13456;BME280;6800;50.940;6.940;2023-07-02T00:24:10;100024.91;;;29.82;36.01
13456;BME280;6800;50.940;6.940;2023-07-02T00:28:11;100024.97;;;30.05;35.71
13456;BME280;6800;50.940;6.940;2023-07-02T00:32:12;100023.69;;;29.96;36.13
13456;BME280;6800;50.940;6.940;2023-07-02T00:36:14;100023.03;;;29.65;36.27
13456;BME280;6800;50.940;6.940;2023-07-02T00:40:15;100021.06;;;29.90;35.80
13456;BME280;6800;50.940;6.940;2023-07-02T00:44:17;100025.03;;;29.87;36.25
13456;BME280;6800;50.940;6.940;2023-07-02T00:48:18;100019.06;;;29.85;35.96
13456;BME280;6800;50.940;6.940;2023-07-02T00:52:20;100020.91;;;29.37;36.48
13456;BME280;6800;50.940;6.940;2023-07-02T00:56:23;100017.97;;;29.75;35.80
13456;BME280;6800;50.940;6.940;2023-07-02T01:00:24;100014.75;;;29.66;35.68
13456;BME280;6800;50.940;6.940;2023-07-02T01:04:26;100019.00;;;29.74;35.36
13456;BME280;6800;50.940;6.940;2023-07-02T01:08:28;100017.31;;;29.91;34.90
13456;BME280;6800;50.940;6.940;2023-07-02T01:12:30;100023.47;;;29.80;35.31
13456;BME280;6800;50.940;6.940;2023-07-02T01:16:32;100019.84;;;29.56;35.43
13456;BME280;6800;50.940;6.940;2023-07-02T01:20:36;100017.88;;;29.63;34.62
13456;BME280;6800;50.940;6.940;2023-07-02T01:24:41;100015.63;;;29.78;34.81
13456;BME280;6800;50.940;6.940;2023-07-02T01:28:43;100021.88;;;29.43;35.08
13456;BME280;6800;50.940;6.940;2023-07-02T01:32:44;100021.28;;;29.41;34.71
13456;BME280;6800;50.940;6.940;2023-07-02T01:36:46;100018.28;;;29.30;34.93
13456;BME280;6800;50.940;6.940;2023-07-02T01:40:47;100011.06;;;29.61;34.79
13456;BME280;6800;50.940;6.940;2023-07-02T01:44:49;100006.91;;;29.47;34.32
13456;BME280;6800;50.940;6.940;2023-07-02T01:48:52;100007.50;;;29.49;34.43
13456;BME280;6800;50.940;6.940;2023-07-02T01:52:54;100017.06;;;29.45;33.89
13456;BME280;6800;50.940;6.940;2023-07-02T01:56:55;100010.94;;;29.56;34.28
13456;BME280;6800;50.940;6.940;2023-07-02T02:00:57;100009.69;;;29.22;34.15
13456;BME280;6800;50.940;6.940;2023-07-02T02:04:59;100015.06;;;29.40;34.67
13456;BME280;6800;50.940;6.940;2023-07-02T02:09:00;100018.78;;;29.21;34.05
13456;BME280;6800;50.940;6.940;2023-07-02T02:13:04;100025.75;;;29.28;34.53
13456;BME280;6800;50.940;6.940;2023-07-02T02:17:06;100026.38;;;29.30;34.38
13456;BME280;6800;50.940;6.940;2023-07-02T02:21:07;100031.06;;;29.17;34.63
13456;BME280;6800;50.940;6.940;2023-07-02T02:25:09;100032.94;;;29.10;34.50
13456;BME280;6800;50.940;6.940;2023-07-02T02:29:10;100023.81;;;29.36;34.38
13456;BME280;6800;50.940;6.940;2023-07-02T02:33:12;100023.81;;;29.36;34.27
13456;BME280;6800;50.940;6.940;2023-07-02T02:37:13;100027.38;;;29.11;34.19
13456;BME280;6800;50.940;6.940;2023-07-02T02:41:14;100028.59;;;29.33;33.76
13456;BME280;6800;50.940;6.940;2023-07-02T02:45:16;100021.88;;;29.24;34.56
13456;BME280;6800;50.940;6.940;2023-07-02T02:49:17;100018.13;;;29.25;34.04
13456;BME280;6800;50.940;6.940;2023-07-02T02:53:18;100015.25;;;29.02;34.61
13456;BME280;6800;50.940;6.940;2023-07-02T02:57:20;100006.22;;;29.33;34.08
13456;BME280;6800;50.940;6.940;2023-07-02T03:01:21;100004.63;;;28.89;35.12
13456;BME280;6800;50.940;6.940;2023-07-02T03:05:22;100020.28;;;28.74;34.58
13456;BME280;6800;50.940;6.940;2023-07-02T03:09:24;100033.66;;;29.05;34.24
13456;BME280;6800;50.940;6.940;2023-07-02T03:13:25;100039.06;;;29.23;34.43
13456;BME280;6800;50.940;6.940;2023-07-02T03:17:27;100051.84;;;29.03;34.02
13456;BME280;6800;50.940;6.940;2023-07-02T03:21:28;100050.13;;;28.35;35.33
13456;BME280;6800;50.940;6.940;2023-07-02T03:25:31;100054.50;;;28.85;34.19
13456;BME280;6800;50.940;6.940;2023-07-02T03:29:34;100060.41;;;28.76;35.03
13456;BME280;6800;50.940;6.940;2023-07-02T03:33:35;100063.94;;;28.94;34.12
13456;BME280;6800;50.940;6.940;2023-07-02T03:37:37;100056.53;;;28.90;34.21
13456;BME280;6800;50.940;6.940;2023-07-02T03:41:38;100063.56;;;28.66;34.68
13456;BME280;6800;50.940;6.940;2023-07-02T03:45:40;100061.53;;;28.86;34.25
13456;BME280;6800;50.940;6.940;2023-07-02T03:49:41;100062.13;;;28.88;34.25
13456;BME280;6800;50.940;6.940;2023-07-02T03:53:43;100068.25;;;28.95;34.28
13456;BME280;6800;50.940;6.940;2023-07-02T03:57:45;100066.94;;;29.04;34.78
13456;BME280;6800;50.940;6.940;2023-07-02T04:01:46;100077.38;;;28.94;34.82
13456;BME280;6800;50.940;6.940;2023-07-02T04:05:47;100093.38;;;28.83;35.14
13456;BME280;6800;50.940;6.940;2023-07-02T04:09:49;100097.19;;;29.24;33.99
13456;BME280;6800;50.940;6.940;2023-07-02T04:13:50;100097.88;;;29.13;34.46
13456;BME280;6800;50.940;6.940;2023-07-02T04:17:52;100105.09;;;29.38;33.68
13456;BME280;6800;50.940;6.940;2023-07-02T04:21:53;100107.56;;;29.21;34.40
13456;BME280;6800;50.940;6.940;2023-07-02T04:25:55;100119.63;;;29.37;34.06
13456;BME280;6800;50.940;6.940;2023-07-02T04:30:16;100110.88;;;29.41;33.59
13456;BME280;6800;50.940;6.940;2023-07-02T04:34:17;100119.75;;;29.42;33.76
13456;BME280;6800;50.940;6.940;2023-07-02T04:38:23;100118.13;;;29.41;34.18
13456;BME280;6800;50.940;6.940;2023-07-02T04:42:24;100117.25;;;29.83;33.31
13456;BME280;6800;50.940;6.940;2023-07-02T04:46:28;100132.66;;;29.76;33.77
13456;BME280;6800;50.940;6.940;2023-07-02T04:50:31;100126.16;;;29.22;34.50
13456;BME280;6800;50.940;6.940;2023-07-02T04:54:32;100136.69;;;29.67;33.64
13456;BME280;6800;50.940;6.940;2023-07-02T04:58:34;100130.31;;;29.97;33.43
13456;BME280;6800;50.940;6.940;2023-07-02T05:02:35;100133.16;;;29.66;34.01
13456;BME280;6800;50.940;6.940;2023-07-02T05:06:37;100144.06;;;29.53;34.38
13456;BME280;6800;50.940;6.940;2023-07-02T05:10:38;100140.84;;;30.17;33.61
13456;BME280;6800;50.940;6.940;2023-07-02T05:14:39;100141.44;;;30.19;33.44
13456;BME280;6800;50.940;6.940;2023-07-02T05:18:41;100147.38;;;29.91;33.67
13456;BME280;6800;50.940;6.940;2023-07-02T05:22:42;100158.19;;;30.21;33.22
13456;BME280;6800;50.940;6.940;2023-07-02T05:26:43;100157.75;;;30.24;33.19
13456;BME280;6800;50.940;6.940;2023-07-02T05:30:45;100158.88;;;30.17;33.52
13456;BME280;6800;50.940;6.940;2023-07-02T05:34:47;100168.25;;;30.32;32.99
13456;BME280;6800;50.940;6.940;2023-07-02T05:38:48;100163.56;;;30.39;33.38
13456;BME280;6800;50.940;6.940;2023-07-02T05:42:49;100166.38;;;30.62;32.46
13456;BME280;6800;50.940;6.940;2023-07-02T05:46:51;100169.91;;;31.27;31.85
13456;BME280;6800;50.940;6.940;2023-07-02T05:50:53;100173.44;;;31.28;31.51
13456;BME280;6800;50.940;6.940;2023-07-02T05:54:54;100173.31;;;31.81;30.88
13456;BME280;6800;50.940;6.940;2023-07-02T05:58:56;100185.13;;;32.03;30.45
13456;BME280;6800;50.940;6.940;2023-07-02T06:02:57;100179.13;;;32.12;30.63
13456;BME280;6800;50.940;6.940;2023-07-02T06:06:59;100186.47;;;32.28;29.52
13456;BME280;6800;50.940;6.940;2023-07-02T06:11:00;100188.78;;;32.48;30.03
13456;BME280;6800;50.940;6.940;2023-07-02T06:15:02;100204.44;;;32.74;29.07
13456;BME280;6800;50.940;6.940;2023-07-02T06:19:03;100206.38;;;32.79;29.47
13456;BME280;6800;50.940;6.940;2023-07-02T06:23:05;100188.56;;;34.21;28.05
13456;BME280;6800;50.940;6.940;2023-07-02T06:27:06;100190.19;;;34.70;26.64
13456;BME280;6800;50.940;6.940;2023-07-02T06:31:08;100192.03;;;34.16;27.51
13456;BME280;6800;50.940;6.940;2023-07-02T06:35:09;100209.31;;;33.72;27.71
13456;BME280;6800;50.940;6.940;2023-07-02T06:39:11;100214.13;;;32.59;28.86
13456;BME280;6800;50.940;6.940;2023-07-02T06:43:12;100217.94;;;33.36;27.93
13456;BME280;6800;50.940;6.940;2023-07-02T06:47:13;100225.53;;;32.89;28.26
13456;BME280;6800;50.940;6.940;2023-07-02T06:51:15;100233.13;;;32.24;28.94
13456;BME280;6800;50.940;6.940;2023-07-02T06:55:16;100229.34;;;32.37;28.78
13456;BME280;6800;50.940;6.940;2023-07-02T06:59:22;100228.47;;;33.65;27.35
13456;BME280;6800;50.940;6.940;2023-07-02T07:03:24;100239.41;;;33.92;27.43
13456;BME280;6800;50.940;6.940;2023-07-02T07:07:25;100229.03;;;33.89;27.28
13456;BME280;6800;50.940;6.940;2023-07-02T07:11:27;100246.97;;;33.24;28.27
13456;BME280;6800;50.940;6.940;2023-07-02T07:15:33;100239.47;;;33.97;27.37
13456;BME280;6800;50.940;6.940;2023-07-02T07:19:35;100244.78;;;33.54;27.30
13456;BME280;6800;50.940;6.940;2023-07-02T07:23:37;100241.78;;;33.89;27.04
13456;BME280;6800;50.940;6.940;2023-07-02T07:27:38;100257.56;;;33.42;25.55
13456;BME280;6800;50.940;6.940;2023-07-02T07:31:39;100245.69;;;33.59;25.77
13456;BME280;6800;50.940;6.940;2023-07-02T07:35:41;100260.28;;;32.69;26.17
13456;BME280;6800;50.940;6.940;2023-07-02T07:39:42;100258.78;;;33.34;26.18
13456;BME280;6800;50.940;6.940;2023-07-02T07:43:44;100255.03;;;34.02;25.05
13456;BME280;6800;50.940;6.940;2023-07-02T07:47:45;100249.59;;;34.93;23.93
13456;BME280;6800;50.940;6.940;2023-07-02T07:51:49;100248.44;;;35.79;22.35
13456;BME280;6800;50.940;6.940;2023-07-02T07:55:50;100247.88;;;36.19;22.05
13456;BME280;6800;50.940;6.940;2023-07-02T07:59:52;100257.41;;;36.99;21.08
13456;BME280;6800;50.940;6.940;2023-07-02T08:03:53;100248.84;;;38.16;20.67
13456;BME280;6800;50.940;6.940;2023-07-02T08:07:55;100258.94;;;38.20;20.44
13456;BME280;6800;50.940;6.940;2023-07-02T08:11:57;100264.75;;;37.03;20.50
13456;BME280;6800;50.940;6.940;2023-07-02T08:15:58;100264.38;;;36.69;20.99
13456;BME280;6800;50.940;6.940;2023-07-02T08:20:00;100268.69;;;36.50;21.74
13456;BME280;6800;50.940;6.940;2023-07-02T08:24:02;100277.72;;;34.82;23.07
13456;BME280;6800;50.940;6.940;2023-07-02T08:28:04;100278.88;;;34.91;22.90
13456;BME280;6800;50.940;6.940;2023-07-02T08:32:05;100279.31;;;34.35;23.48
13456;BME280;6800;50.940;6.940;2023-07-02T08:36:07;100289.44;;;34.61;23.08
13456;BME280;6800;50.940;6.940;2023-07-02T08:40:18;100294.81;;;34.39;23.47
13456;BME280;6800;50.940;6.940;2023-07-02T08:44:21;100279.78;;;35.50;21.75
13456;BME280;6800;50.940;6.940;2023-07-02T08:48:23;100286.38;;;36.53;21.34
13456;BME280;6800;50.940;6.940;2023-07-02T08:52:25;100291.28;;;36.51;21.46
13456;BME280;6800;50.940;6.940;2023-07-02T08:56:27;100282.78;;;37.90;19.71
13456;BME280;6800;50.940;6.940;2023-07-02T09:00:28;100285.75;;;37.78;19.56
13456;BME280;6800;50.940;6.940;2023-07-02T09:04:34;100276.91;;;36.75;21.03
13456;BME280;6800;50.940;6.940;2023-07-02T09:08:36;100292.63;;;36.01;20.71
13456;BME280;6800;50.940;6.940;2023-07-02T09:12:38;100292.34;;;35.61;21.77
13456;BME280;6800;50.940;6.940;2023-07-02T09:16:41;100296.94;;;35.29;22.58
13456;BME280;6800;50.940;6.940;2023-07-02T09:20:44;100291.44;;;35.51;22.10
13456;BME280;6800;50.940;6.940;2023-07-02T09:24:58;100300.66;;;36.23;21.44
13456;BME280;6800;50.940;6.940;2023-07-02T09:29:00;100301.66;;;36.07;21.57
13456;BME280;6800;50.940;6.940;2023-07-02T09:33:06;100302.16;;;35.67;22.60
13456;BME280;6800;50.940;6.940;2023-07-02T09:37:09;100303.28;;;36.08;21.98
13456;BME280;6800;50.940;6.940;2023-07-02T09:41:10;100302.63;;;35.27;22.76
13456;BME280;6800;50.940;6.940;2023-07-02T09:45:12;100295.22;;;35.86;21.72
13456;BME280;6800;50.940;6.940;2023-07-02T09:49:16;100293.34;;;35.87;22.01
13456;BME280;6800;50.940;6.940;2023-07-02T09:53:18;100298.16;;;36.73;21.83
13456;BME280;6800;50.940;6.940;2023-07-02T09:57:19;100288.31;;;38.49;19.83
13456;BME280;6800;50.940;6.940;2023-07-02T10:01:21;100299.47;;;38.57;19.43
13456;BME280;6800;50.940;6.940;2023-07-02T10:05:33;100289.47;;;40.45;18.38
13456;BME280;6800;50.940;6.940;2023-07-02T10:09:40;100296.00;;;40.02;17.84
13456;BME280;6800;50.940;6.940;2023-07-02T10:13:41;100288.66;;;40.21;17.77
13456;BME280;6800;50.940;6.940;2023-07-02T10:17:57;100297.06;;;38.99;18.78
13456;BME280;6800;50.940;6.940;2023-07-02T10:22:03;100302.56;;;38.41;19.40
13456;BME280;6800;50.940;6.940;2023-07-02T10:26:15;100303.13;;;36.92;20.92
13456;BME280;6800;50.940;6.940;2023-07-02T10:30:17;100301.00;;;37.19;19.27
13456;BME280;6800;50.940;6.940;2023-07-02T10:34:32;100295.34;;;36.43;21.13
13456;BME280;6800;50.940;6.940;2023-07-02T10:38:33;100287.53;;;36.72;20.25
13456;BME280;6800;50.940;6.940;2023-07-02T10:42:48;100299.88;;;35.86;21.83
13456;BME280;6800;50.940;6.940;2023-07-02T10:46:50;100300.78;;;35.06;21.72
13456;BME280;6800;50.940;6.940;2023-07-02T10:50:52;100300.78;;;35.33;22.13
13456;BME280;6800;50.940;6.940;2023-07-02T10:54:53;100309.69;;;35.02;22.75
13456;BME280;6800;50.940;6.940;2023-07-02T10:58:55;100316.25;;;35.33;22.11
13456;BME280;6800;50.940;6.940;2023-07-02T11:02:57;100309.78;;;34.64;22.97
13456;BME280;6800;50.940;6.940;2023-07-02T11:07:00;100309.69;;;35.28;22.29
13456;BME280;6800;50.940;6.940;2023-07-02T11:11:08;100311.16;;;35.09;21.92
13456;BME280;6800;50.940;6.940;2023-07-02T11:15:11;100305.22;;;34.91;22.11
13456;BME280;6800;50.940;6.940;2023-07-02T11:19:13;100327.25;;;34.94;21.70
13456;BME280;6800;50.940;6.940;2023-07-02T11:23:22;100322.88;;;35.73;20.79
13456;BME280;6800;50.940;6.940;2023-07-02T11:27:23;100324.56;;;35.84;20.73
13456;BME280;6800;50.940;6.940;2023-07-02T11:31:25;100325.13;;;36.23;20.35
13456;BME280;6800;50.940;6.940;2023-07-02T11:35:35;100318.59;;;36.71;20.24
13456;BME280;6800;50.940;6.940;2023-07-02T11:39:36;100310.84;;;37.70;19.85
13456;BME280;6800;50.940;6.940;2023-07-02T11:43:38;100317.03;;;38.31;19.05
13456;BME280;6800;50.940;6.940;2023-07-02T11:47:39;100324.75;;;37.48;20.00
13456;BME280;6800;50.940;6.940;2023-07-02T11:51:42;100337.56;;;36.14;20.97
13456;BME280;6800;50.940;6.940;2023-07-02T11:55:49;100330.75;;;37.66;18.88
13456;BME280;6800;50.940;6.940;2023-07-02T11:59:51;100322.28;;;37.72;19.32
13456;BME280;6800;50.940;6.940;2023-07-02T12:03:53;100327.41;;;36.41;20.12
13456;BME280;6800;50.940;6.940;2023-07-02T12:07:55;100328.31;;;35.73;19.69
13456;BME280;6800;50.940;6.940;2023-07-02T12:11:56;100317.19;;;36.73;19.40
13456;BME280;6800;50.940;6.940;2023-07-02T12:15:58;100321.25;;;36.09;19.16
13456;BME280;6800;50.940;6.940;2023-07-02T12:19:59;100323.31;;;37.01;17.95
13456;BME280;6800;50.940;6.940;2023-07-02T12:24:01;100319.69;;;36.18;19.09
13456;BME280;6800;50.940;6.940;2023-07-02T12:28:04;100328.38;;;36.72;18.18
13456;BME280;6800;50.940;6.940;2023-07-02T12:32:06;100327.34;;;36.31;17.75
13456;BME280;6800;50.940;6.940;2023-07-02T12:36:08;100337.59;;;35.77;18.53
13456;BME280;6800;50.940;6.940;2023-07-02T12:40:10;100331.47;;;36.96;17.65
13456;BME280;6800;50.940;6.940;2023-07-02T12:44:11;100332.88;;;36.46;17.86
13456;BME280;6800;50.940;6.940;2023-07-02T12:48:12;100339.56;;;36.24;17.53
13456;BME280;6800;50.940;6.940;2023-07-02T12:52:14;100345.06;;;35.07;18.88
13456;BME280;6800;50.940;6.940;2023-07-02T12:56:15;100335.09;;;35.44;19.07
13456;BME280;6800;50.940;6.940;2023-07-02T13:00:17;100340.81;;;35.74;18.79
13456;BME280;6800;50.940;6.940;2023-07-02T13:04:18;100343.13;;;35.56;18.99
13456;BME280;6800;50.940;6.940;2023-07-02T13:08:20;100339.19;;;35.47;19.37
13456;BME280;6800;50.940;6.940;2023-07-02T13:12:22;100337.19;;;35.64;19.56
13456;BME280;6800;50.940;6.940;2023-07-02T13:16:23;100345.81;;;35.02;19.81
13456;BME280;6800;50.940;6.940;2023-07-02T13:20:25;100341.94;;;36.15;19.02
13456;BME280;6800;50.940;6.940;2023-07-02T13:24:32;100345.13;;;36.02;19.94
13456;BME280;6800;50.940;6.940;2023-07-02T13:28:35;100339.69;;;35.70;20.29
13456;BME280;6800;50.940;6.940;2023-07-02T13:32:37;100338.53;;;35.08;20.99
13456;BME280;6800;50.940;6.940;2023-07-02T13:36:38;100341.94;;;35.78;19.93
13456;BME280;6800;50.940;6.940;2023-07-02T13:40:39;100333.97;;;35.40;20.56
13456;BME280;6800;50.940;6.940;2023-07-02T13:44:41;100344.09;;;35.76;19.96
13456;BME280;6800;50.940;6.940;2023-07-02T13:48:43;100339.41;;;36.03;19.59
13456;BME280;6800;50.940;6.940;2023-07-02T13:52:44;100344.56;;;36.00;19.52
13456;BME280;6800;50.940;6.940;2023-07-02T13:56:47;100335.63;;;35.41;20.02
13456;BME280;6800;50.940;6.940;2023-07-02T14:00:51;100344.06;;;35.71;19.25
13456;BME280;6800;50.940;6.940;2023-07-02T14:04:52;100339.19;;;35.73;19.63
13456;BME280;6800;50.940;6.940;2023-07-02T14:08:54;100350.28;;;35.67;19.96
13456;BME280;6800;50.940;6.940;2023-07-02T14:12:55;100344.31;;;35.70;19.93
13456;BME280;6800;50.940;6.940;2023-07-02T14:16:56;100347.16;;;35.85;20.14
13456;BME280;6800;50.940;6.940;2023-07-02T14:20:58;100337.09;;;35.85;20.16
13456;BME280;6800;50.940;6.940;2023-07-02T14:24:59;100331.25;;;35.67;20.14
13456;BME280;6800;50.940;6.940;2023-07-02T14:29:01;100334.91;;;35.51;19.77
13456;BME280;6800;50.940;6.940;2023-07-02T14:33:03;100334.09;;;35.23;20.88
13456;BME280;6800;50.940;6.940;2023-07-02T14:37:05;100327.81;;;34.96;20.74
13456;BME280;6800;50.940;6.940;2023-07-02T14:41:06;100325.56;;;35.68;20.14
13456;BME280;6800;50.940;6.940;2023-07-02T14:45:08;100323.00;;;35.57;20.68
13456;BME280;6800;50.940;6.940;2023-07-02T14:49:10;100319.28;;;35.68;20.08
13456;BME280;6800;50.940;6.940;2023-07-02T14:53:11;100315.16;;;35.33;20.19
13456;BME280;6800;50.940;6.940;2023-07-02T14:57:13;100319.19;;;36.31;20.02
13456;BME280;6800;50.940;6.940;2023-07-02T15:01:15;100318.78;;;35.71;20.09
13456;BME280;6800;50.940;6.940;2023-07-02T15:05:18;100307.34;;;34.24;21.82
13456;BME280;6800;50.940;6.940;2023-07-02T15:09:19;100324.03;;;35.51;20.39
13456;BME280;6800;50.940;6.940;2023-07-02T15:13:21;100314.78;;;36.20;19.38
13456;BME280;6800;50.940;6.940;2023-07-02T15:17:25;100305.06;;;35.92;19.27
13456;BME280;6800;50.940;6.940;2023-07-02T15:21:26;100308.38;;;35.94;19.54
13456;BME280;6800;50.940;6.940;2023-07-02T15:25:30;100306.63;;;35.20;20.38
13456;BME280;6800;50.940;6.940;2023-07-02T15:29:31;100306.69;;;35.57;19.94
13456;BME280;6800;50.940;6.940;2023-07-02T15:33:33;100299.81;;;35.81;19.66
13456;BME280;6800;50.940;6.940;2023-07-02T15:37:34;100306.09;;;35.23;20.71
13456;BME280;6800;50.940;6.940;2023-07-02T15:41:36;100313.72;;;35.53;20.24
13456;BME280;6800;50.940;6.940;2023-07-02T15:45:40;100304.28;;;35.28;20.17
13456;BME280;6800;50.940;6.940;2023-07-02T15:49:41;100301.13;;;35.10;20.79
13456;BME280;6800;50.940;6.940;2023-07-02T15:53:42;100296.97;;;35.34;20.85
13456;BME280;6800;50.940;6.940;2023-07-02T15:57:44;100300.66;;;34.96;21.00
13456;BME280;6800;50.940;6.940;2023-07-02T16:01:48;100296.28;;;35.80;20.74
13456;BME280;6800;50.940;6.940;2023-07-02T16:05:56;100306.47;;;34.83;21.71
13456;BME280;6800;50.940;6.940;2023-07-02T16:09:59;100305.63;;;34.99;22.03
13456;BME280;6800;50.940;6.940;2023-07-02T16:14:06;100301.56;;;35.33;21.41
13456;BME280;6800;50.940;6.940;2023-07-02T16:18:09;100306.53;;;35.68;21.39
13456;BME280;6800;50.940;6.940;2023-07-02T16:22:11;100309.78;;;35.39;21.70
13456;BME280;6800;50.940;6.940;2023-07-02T16:26:12;100306.53;;;35.68;20.67
13456;BME280;6800;50.940;6.940;2023-07-02T16:30:14;100302.50;;;33.54;23.53
13456;BME280;6800;50.940;6.940;2023-07-02T16:34:15;100301.22;;;35.25;21.49
13456;BME280;6800;50.940;6.940;2023-07-02T16:38:17;100296.59;;;35.20;21.58
13456;BME280;6800;50.940;6.940;2023-07-02T16:42:18;100293.50;;;34.42;22.91
13456;BME280;6800;50.940;6.940;2023-07-02T16:46:19;100297.88;;;34.91;22.15
13456;BME280;6800;50.940;6.940;2023-07-02T16:50:21;100290.31;;;34.93;21.91
13456;BME280;6800;50.940;6.940;2023-07-02T16:54:24;100282.09;;;34.40;23.16
13456;BME280;6800;50.940;6.940;2023-07-02T16:58:27;100281.50;;;34.81;22.24
13456;BME280;6800;50.940;6.940;2023-07-02T17:02:29;100282.31;;;34.38;22.76
13456;BME280;6800;50.940;6.940;2023-07-02T17:06:30;100282.69;;;34.47;22.62
13456;BME280;6800;50.940;6.940;2023-07-02T17:10:31;100290.81;;;33.70;23.59
13456;BME280;6800;50.940;6.940;2023-07-02T17:14:34;100283.34;;;34.32;23.32
13456;BME280;6800;50.940;6.940;2023-07-02T17:18:38;100281.56;;;34.43;23.21
13456;BME280;6800;50.940;6.940;2023-07-02T17:22:40;100281.59;;;34.65;22.94
13456;BME280;6800;50.940;6.940;2023-07-02T17:26:41;100276.47;;;34.68;22.88
13456;BME280;6800;50.940;6.940;2023-07-02T17:30:44;100268.03;;;34.91;22.74
13456;BME280;6800;50.940;6.940;2023-07-02T17:34:46;100273.97;;;35.10;22.21
13456;BME280;6800;50.940;6.940;2023-07-02T17:38:47;100271.59;;;34.70;22.88
13456;BME280;6800;50.940;6.940;2023-07-02T17:42:48;100269.09;;;34.64;22.92
13456;BME280;6800;50.940;6.940;2023-07-02T17:46:58;100269.69;;;34.27;23.27
13456;BME280;6800;50.940;6.940;2023-07-02T17:51:00;100277.84;;;34.71;22.76
13456;BME280;6800;50.940;6.940;2023-07-02T17:55:02;100261.88;;;34.09;23.63
13456;BME280;6800;50.940;6.940;2023-07-02T17:59:04;100267.84;;;34.49;22.94
13456;BME280;6800;50.940;6.940;2023-07-02T18:03:07;100262.03;;;34.63;23.34
13456;BME280;6800;50.940;6.940;2023-07-02T18:07:14;100268.84;;;34.65;23.27
13456;BME280;6800;50.940;6.940;2023-07-02T18:11:16;100264.09;;;34.34;23.71
13456;BME280;6800;50.940;6.940;2023-07-02T18:15:18;100257.63;;;34.57;23.15
13456;BME280;6800;50.940;6.940;2023-07-02T18:19:23;100261.44;;;34.82;23.08
13456;BME280;6800;50.940;6.940;2023-07-02T18:23:27;100262.19;;;34.13;24.00
13456;BME280;6800;50.940;6.940;2023-07-02T18:27:30;100261.41;;;34.55;23.62
13456;BME280;6800;50.940;6.940;2023-07-02T18:31:31;100262.63;;;34.05;23.79
13456;BME280;6800;50.940;6.940;2023-07-02T18:35:34;100265.34;;;34.05;23.73
13456;BME280;6800;50.940;6.940;2023-07-02T18:39:36;100260.81;;;34.10;23.85
13456;BME280;6800;50.940;6.940;2023-07-02T18:43:38;100265.84;;;34.23;23.82
13456;BME280;6800;50.940;6.940;2023-07-02T18:47:39;100261.53;;;34.22;23.66
13456;BME280;6800;50.940;6.940;2023-07-02T18:51:41;100250.66;;;34.22;23.92
13456;BME280;6800;50.940;6.940;2023-07-02T18:55:42;100266.13;;;34.22;24.17
13456;BME280;6800;50.940;6.940;2023-07-02T18:59:54;100249.16;;;33.55;24.32
13456;BME280;6800;50.940;6.940;2023-07-02T19:03:57;100258.31;;;33.70;24.26
13456;BME280;6800;50.940;6.940;2023-07-02T19:07:59;100245.00;;;33.86;24.30
13456;BME280;6800;50.940;6.940;2023-07-02T19:12:00;100253.38;;;34.01;23.98
13456;BME280;6800;50.940;6.940;2023-07-02T19:16:03;100248.06;;;34.11;25.11
13456;BME280;6800;50.940;6.940;2023-07-02T19:20:06;100249.38;;;33.70;25.30
13456;BME280;6800;50.940;6.940;2023-07-02T19:24:07;100249.19;;;33.76;24.86
13456;BME280;6800;50.940;6.940;2023-07-02T19:28:09;100246.34;;;33.66;25.27
13456;BME280;6800;50.940;6.940;2023-07-02T19:32:10;100248.91;;;33.56;25.21
13456;BME280;6800;50.940;6.940;2023-07-02T19:36:12;100254.00;;;33.53;25.08
13456;BME280;6800;50.940;6.940;2023-07-02T19:40:13;100248.00;;;33.67;24.91
13456;BME280;6800;50.940;6.940;2023-07-02T19:44:17;100252.09;;;33.53;24.72
13456;BME280;6800;50.940;6.940;2023-07-02T19:48:19;100246.59;;;33.48;25.35
13456;BME280;6800;50.940;6.940;2023-07-02T19:52:24;100254.47;;;33.66;25.31
13456;BME280;6800;50.940;6.940;2023-07-02T19:56:26;100257.06;;;33.12;26.25
13456;BME280;6800;50.940;6.940;2023-07-02T20:00:28;100268.31;;;33.37;25.71
13456;BME280;6800;50.940;6.940;2023-07-02T20:04:29;100273.25;;;33.40;25.29
13456;BME280;6800;50.940;6.940;2023-07-02T20:08:31;100277.41;;;33.31;25.95
13456;BME280;6800;50.940;6.940;2023-07-02T20:12:33;100274.72;;;33.47;25.52
13456;BME280;6800;50.940;6.940;2023-07-02T20:16:35;100278.25;;;33.48;25.44
13456;BME280;6800;50.940;6.940;2023-07-02T20:20:36;100279.56;;;33.45;25.43
13456;BME280;6800;50.940;6.940;2023-07-02T20:24:38;100290.31;;;33.40;25.35
13456;BME280;6800;50.940;6.940;2023-07-02T20:28:39;100290.63;;;33.27;25.60
13456;BME280;6800;50.940;6.940;2023-07-02T20:32:41;100297.69;;;33.00;25.29
13456;BME280;6800;50.940;6.940;2023-07-02T20:36:43;100293.22;;;32.94;25.14
13456;BME280;6800;50.940;6.940;2023-07-02T20:40:45;100291.75;;;32.86;24.94
13456;BME280;6800;50.940;6.940;2023-07-02T20:44:47;100290.31;;;32.95;24.62
13456;BME280;6800;50.940;6.940;2023-07-02T20:48:51;100290.00;;;32.29;25.05
13456;BME280;6800;50.940;6.940;2023-07-02T20:52:53;100299.13;;;32.63;24.96
13456;BME280;6800;50.940;6.940;2023-07-02T20:56:55;100307.63;;;32.55;24.82
13456;BME280;6800;50.940;6.940;2023-07-02T21:01:04;100312.09;;;32.26;25.36
13456;BME280;6800;50.940;6.940;2023-07-02T21:05:07;100324.31;;;32.40;25.26
13456;BME280;6800;50.940;6.940;2023-07-02T21:09:10;100323.03;;;32.19;25.18
13456;BME280;6800;50.940;6.940;2023-07-02T21:13:11;100328.22;;;32.21;25.09
13456;BME280;6800;50.940;6.940;2023-07-02T21:17:12;100334.69;;;32.31;25.14
13456;BME280;6800;50.940;6.940;2023-07-02T21:21:14;100346.34;;;31.56;25.92
13456;BME280;6800;50.940;6.940;2023-07-02T21:25:15;100339.69;;;31.70;25.48